Time;durP1;ratioP1;P1;durP2;ratioP2;P2;SDS_P1;SDS_P2;PMS_P1;PMS_P2;Temp;Humidity;BMP_temperature;BMP_pressure;BME280_temperature;BME280_humidity;BME280_pressure;Samples;Min_cycle;Max_cycle;Signal;HPM_P1;HPM_P2
2021/07/07 00:00:41;;;;;;;;;;;22.70;46.60;;;;;;8266395;28;19914;-50
2021/07/07 00:04:41;;;;;;;;;;;22.70;46.60;;;;;;8261384;28;20425;-48
2021/07/07 00:08:42;;;;;;;;;;;22.80;46.60;;;;;;8261931;28;20004;-51
2021/07/07 00:12:42;;;;;;;;;;;22.70;47.30;;;;;;8261518;28;19909;-49
2021/07/07 00:16:43;;;;;;;;;;;22.70;47.10;;;;;;8265403;28;19918;-50
2021/07/07 00:20:54;;;;;;;;;;;22.70;47.00;;;;;;8261507;28;19920;-49
2021/07/07 00:24:54;;;;;;;;;;;22.70;47.00;;;;;;8264250;28;19953;-49
2021/07/07 00:28:55;;;;;;;;;;;22.60;47.00;;;;;;8260905;28;19921;-50
2021/07/07 00:32:55;;;;;;;;;;;22.60;47.10;;;;;;8258964;28;19909;-49
2021/07/07 00:36:56;;;;;;;;;;;22.70;47.30;;;;;;8233537;28;20020;-49
2021/07/07 00:40:58;;;;;;;;;;;22.70;47.20;;;;;;8254491;28;19945;-49
2021/07/07 00:44:58;;;;;;;;;;;22.70;47.20;;;;;;8261080;28;19944;-49
2021/07/07 00:48:59;;;;;;;;;;;22.70;47.20;;;;;;8261391;28;19909;-49
2021/07/07 00:52:59;;;;;;;;;;;22.60;47.20;;;;;;8265102;28;19914;-49
2021/07/07 00:57:01;;;;;;;;;;;22.60;47.30;;;;;;8267493;28;19914;-49
2021/07/07 01:01:03;;;;;;;;;;;22.60;47.30;;;;;;8266772;28;20379;-49
2021/07/07 01:05:07;;;;;;;;;;;22.70;47.50;;;;;;8266877;28;20278;-52
2021/07/07 01:09:07;;;;;;;;;;;22.60;47.20;;;;;;8266844;28;19910;-50
2021/07/07 01:13:08;;;;;;;;;;;22.60;47.40;;;;;;8270722;28;19957;-51
2021/07/07 01:17:08;;;;;;;;;;;22.60;47.40;;;;;;8266714;28;19914;-49
2021/07/07 01:21:09;;;;;;;;;;;22.60;47.40;;;;;;8266388;28;19909;-49
2021/07/07 01:25:11;;;;;;;;;;;22.60;47.50;;;;;;8266026;28;19921;-48
2021/07/07 01:29:12;;;;;;;;;;;22.60;47.60;;;;;;8270614;28;19910;-49
2021/07/07 01:33:12;;;;;;;;;;;22.60;47.60;;;;;;8266136;28;19918;-49
2021/07/07 01:37:13;;;;;;;;;;;22.60;47.50;;;;;;8265736;28;19914;-50
2021/07/07 01:41:13;;;;;;;;;;;22.50;47.50;;;;;;8266152;28;19920;-50
2021/07/07 01:45:14;;;;;;;;;;;22.50;47.50;;;;;;8270235;28;19922;-49
2021/07/07 01:49:15;;;;;;;;;;;22.60;47.50;;;;;;8265115;28;20000;-50
2021/07/07 01:53:15;;;;;;;;;;;22.50;47.60;;;;;;8265509;28;19913;-49
2021/07/07 01:57:16;;;;;;;;;;;22.50;47.60;;;;;;8265718;28;19964;-48
2021/07/07 02:01:16;;;;;;;;;;;22.50;47.60;;;;;;8264887;28;19918;-49
2021/07/07 02:05:17;;;;;;;;;;;22.50;47.90;;;;;;8269133;28;19929;-49
2021/07/07 02:09:19;;;;;;;;;;;22.50;47.60;;;;;;8265278;28;19914;-49
2021/07/07 02:13:20;;;;;;;;;;;22.50;47.60;;;;;;8264933;28;19956;-49
2021/07/07 02:17:20;;;;;;;;;;;22.50;47.90;;;;;;8264948;28;19910;-50
2021/07/07 02:21:21;;;;;;;;;;;22.50;48.00;;;;;;8269030;28;19913;-49
2021/07/07 02:25:23;;;;;;;;;;;22.50;47.70;;;;;;8264137;28;19969;-48
2021/07/07 02:29:23;;;;;;;;;;;22.50;47.80;;;;;;8264602;28;19921;-49
2021/07/07 02:33:25;;;;;;;;;;;22.50;47.80;;;;;;8264240;28;19988;-50
2021/07/07 02:37:25;;;;;;;;;;;22.50;48.00;;;;;;8264821;28;19913;-49
2021/07/07 02:41:26;;;;;;;;;;;22.50;47.90;;;;;;8267193;28;20002;-49
2021/07/07 02:45:27;;;;;;;;;;;22.50;47.80;;;;;;8264083;28;19933;-50
2021/07/07 02:49:28;;;;;;;;;;;22.50;47.90;;;;;;8263140;28;20371;-49
2021/07/07 02:53:28;;;;;;;;;;;22.50;48.00;;;;;;8263532;28;19917;-48
2021/07/07 02:57:55;;;;;;;;;;;22.50;48.00;;;;;;8267980;28;20001;-49
2021/07/07 03:01:49;;;;;;;;;;;22.50;48.00;;;;;;8262830;28;20427;-49
2021/07/07 03:05:57;;;;;;;;;;;22.50;47.90;;;;;;8263396;28;19921;-49
2021/07/07 03:09:57;;;;;;;;;;;22.40;48.20;;;;;;8263041;28;19987;-49
2021/07/07 03:13:57;;;;;;;;;;;22.40;48.20;;;;;;8262506;28;19914;-50
2021/07/07 03:17:58;;;;;;;;;;;22.40;48.30;;;;;;8267502;28;20375;-49
2021/07/07 03:21:58;;;;;;;;;;;22.50;48.10;;;;;;8263649;28;19914;-50
2021/07/07 03:25:59;;;;;;;;;;;22.50;48.00;;;;;;8262186;28;19921;-49
2021/07/07 03:29:59;;;;;;;;;;;22.50;48.00;;;;;;8262241;28;19948;-49
2021/07/07 03:34:00;;;;;;;;;;;22.40;48.00;;;;;;8266859;28;19924;-50
2021/07/07 03:38:00;;;;;;;;;;;22.40;48.00;;;;;;8262344;28;19914;-49
2021/07/07 03:42:01;;;;;;;;;;;22.40;48.20;;;;;;8262051;28;20537;-49
2021/07/07 03:46:01;;;;;;;;;;;22.40;48.20;;;;;;8261472;28;20012;-49
2021/07/07 03:50:03;;;;;;;;;;;22.40;48.10;;;;;;8266374;28;19928;-49
2021/07/07 03:54:03;;;;;;;;;;;22.40;48.10;;;;;;8261971;28;19914;-50
2021/07/07 03:58:04;;;;;;;;;;;22.40;48.20;;;;;;8261536;28;19910;-50
2021/07/07 04:02:04;;;;;;;;;;;22.40;48.10;;;;;;8253094;28;20291;-49
2021/07/07 04:06:05;;;;;;;;;;;22.40;48.40;;;;;;8229386;28;19930;-48
2021/07/07 04:10:07;;;;;;;;;;;22.40;48.20;;;;;;8258049;28;19925;-49
2021/07/07 04:14:08;;;;;;;;;;;22.40;48.50;;;;;;8261581;28;19980;-50
2021/07/07 04:18:09;;;;;;;;;;;22.40;48.30;;;;;;8262068;28;20355;-51
2021/07/07 04:22:10;;;;;;;;;;;22.40;48.20;;;;;;8261110;28;19959;-49
2021/07/07 04:26:10;;;;;;;;;;;22.40;48.50;;;;;;8265703;28;19954;-49
2021/07/07 04:30:12;;;;;;;;;;;22.40;48.40;;;;;;8265357;28;19939;-49
2021/07/07 04:34:13;;;;;;;;;;;22.40;48.40;;;;;;8267567;28;20328;-50
2021/07/07 04:38:13;;;;;;;;;;;22.40;48.20;;;;;;8267748;28;19918;-50
2021/07/07 04:42:14;;;;;;;;;;;22.40;48.30;;;;;;8268774;28;20299;-50
2021/07/07 04:46:14;;;;;;;;;;;22.30;48.20;;;;;;8270287;28;19922;-50
2021/07/07 04:50:16;;;;;;;;;;;22.40;48.60;;;;;;8267448;28;20363;-49
2021/07/07 04:54:17;;;;;;;;;;;22.40;48.40;;;;;;8267194;28;19920;-49
2021/07/07 04:58:17;;;;;;;;;;;22.40;48.50;;;;;;8266959;28;20240;-49
2021/07/07 05:02:18;;;;;;;;;;;22.30;48.30;;;;;;8271861;28;20005;-49
2021/07/07 05:06:18;;;;;;;;;;;22.40;48.50;;;;;;8267293;28;19929;-51
2021/07/07 05:10:18;;;;;;;;;;;22.30;48.50;;;;;;8266413;28;19910;-50
2021/07/07 05:14:19;;;;;;;;;;;22.30;48.50;;;;;;8266977;28;19929;-53
2021/07/07 05:18:20;;;;;;;;;;;22.30;48.30;;;;;;8271004;28;19960;-53
2021/07/07 05:22:20;;;;;;;;;;;22.30;48.40;;;;;;8266445;28;19918;-52
2021/07/07 05:26:21;;;;;;;;;;;22.30;48.50;;;;;;8266682;28;19928;-52
2021/07/07 05:30:24;;;;;;;;;;;22.30;48.50;;;;;;8266600;28;19910;-49
2021/07/07 05:34:25;;;;;;;;;;;22.30;48.60;;;;;;8266220;28;19920;-49
2021/07/07 05:38:26;;;;;;;;;;;22.30;48.60;;;;;;8270409;28;20000;-49
2021/07/07 05:42:26;;;;;;;;;;;22.30;48.40;;;;;;8264884;28;19925;-48
2021/07/07 05:46:27;;;;;;;;;;;22.30;48.60;;;;;;8265410;28;20440;-49
2021/07/07 05:50:27;;;;;;;;;;;22.30;48.70;;;;;;8265862;28;19909;-51
2021/07/07 05:54:28;;;;;;;;;;;22.30;48.70;;;;;;8270050;28;20004;-49
2021/07/07 05:58:28;;;;;;;;;;;22.30;48.80;;;;;;8265034;28;19913;-51
2021/07/07 06:02:29;;;;;;;;;;;22.30;48.60;;;;;;8265691;28;19913;-51
2021/07/07 06:06:29;;;;;;;;;;;22.30;48.70;;;;;;8265010;28;19922;-50
2021/07/07 06:10:30;;;;;;;;;;;22.30;48.70;;;;;;8268956;28;20409;-49
2021/07/07 06:14:30;;;;;;;;;;;22.30;48.60;;;;;;8264924;28;19953;-49
2021/07/07 06:18:32;;;;;;;;;;;22.30;48.80;;;;;;8264843;28;19914;-49
2021/07/07 06:22:32;;;;;;;;;;;22.30;49.00;;;;;;8264487;28;19949;-50
2021/07/07 06:26:34;;;;;;;;;;;22.30;48.80;;;;;;8264554;28;19921;-50
2021/07/07 06:30:35;;;;;;;;;;;22.30;48.60;;;;;;8268975;28;19956;-49
2021/07/07 06:34:35;;;;;;;;;;;22.30;48.70;;;;;;8263946;28;20001;-51
2021/07/07 06:38:35;;;;;;;;;;;22.30;48.70;;;;;;8264198;28;20080;-50
2021/07/07 06:42:36;;;;;;;;;;;22.30;48.70;;;;;;8264184;28;19918;-49
2021/07/07 06:46:37;;;;;;;;;;;22.30;48.90;;;;;;8267798;28;20387;-50
2021/07/07 06:50:38;;;;;;;;;;;22.30;48.70;;;;;;8263320;28;19921;-48
2021/07/07 06:54:41;;;;;;;;;;;22.30;48.80;;;;;;8263522;28;19918;-48
2021/07/07 06:58:41;;;;;;;;;;;22.30;48.60;;;;;;8263162;28;19914;-51
2021/07/07 07:02:43;;;;;;;;;;;22.30;48.70;;;;;;8263606;28;19916;-49
2021/07/07 07:06:43;;;;;;;;;;;22.30;48.50;;;;;;8267521;28;19936;-49
2021/07/07 07:10:44;;;;;;;;;;;22.30;48.70;;;;;;8262743;28;19913;-50
2021/07/07 07:14:44;;;;;;;;;;;22.30;48.70;;;;;;8263293;28;19914;-50
2021/07/07 07:18:45;;;;;;;;;;;22.30;48.90;;;;;;8262932;28;20420;-49
2021/07/07 07:22:45;;;;;;;;;;;22.30;48.60;;;;;;8266954;28;20314;-51
2021/07/07 07:26:46;;;;;;;;;;;22.30;48.60;;;;;;8262480;28;19926;-50
2021/07/07 07:30:46;;;;;;;;;;;22.20;48.60;;;;;;8262654;28;19914;-49
2021/07/07 07:34:47;;;;;;;;;;;22.30;48.90;;;;;;8237891;28;20295;-50
2021/07/07 07:38:49;;;;;;;;;;;22.30;48.70;;;;;;8267354;28;19964;-54
2021/07/07 07:42:50;;;;;;;;;;;22.20;48.60;;;;;;8261827;28;19968;-49
2021/07/07 07:46:52;;;;;;;;;;;22.20;48.70;;;;;;8262040;28;20344;-52
2021/07/07 07:50:53;;;;;;;;;;;22.30;48.60;;;;;;8262226;28;19936;-49
2021/07/07 07:54:53;;;;;;;;;;;22.30;48.80;;;;;;8262165;28;19910;-49
2021/07/07 07:58:54;;;;;;;;;;;22.30;48.80;;;;;;8265744;28;19910;-50
2021/07/07 08:02:55;;;;;;;;;;;22.30;48.70;;;;;;8261662;28;19917;-50
2021/07/07 08:06:55;;;;;;;;;;;22.20;48.80;;;;;;8261284;28;19933;-49
2021/07/07 08:10:56;;;;;;;;;;;22.30;48.80;;;;;;8255008;28;20005;-49
2021/07/07 08:14:57;;;;;;;;;;;22.20;48.90;;;;;;8249264;28;19929;-49
2021/07/07 08:18:57;;;;;;;;;;;22.30;49.00;;;;;;8261492;28;19918;-48
2021/07/07 08:22:57;;;;;;;;;;;22.20;49.40;;;;;;8260337;28;19917;-47
2021/07/07 08:26:58;;;;;;;;;;;22.20;48.70;;;;;;8261565;28;19929;-49
2021/07/07 08:30:58;;;;;;;;;;;22.30;49.00;;;;;;8265521;28;19948;-49
2021/07/07 08:34:59;;;;;;;;;;;22.30;49.10;;;;;;8261515;28;20299;-48
2021/07/07 08:38:59;;;;;;;;;;;22.20;48.90;;;;;;8261128;28;20342;-49
2021/07/07 08:43:00;;;;;;;;;;;22.20;49.20;;;;;;8260366;28;20366;-49
2021/07/07 08:47:01;;;;;;;;;;;22.20;49.00;;;;;;8259864;28;19932;-48
2021/07/07 08:51:02;;;;;;;;;;;22.20;49.00;;;;;;8265382;28;20000;-49
2021/07/07 08:55:03;;;;;;;;;;;22.20;48.90;;;;;;8260446;28;19968;-47
2021/07/07 08:59:03;;;;;;;;;;;22.30;49.10;;;;;;8261177;28;19914;-49
2021/07/07 09:03:03;;;;;;;;;;;22.30;49.00;;;;;;8260784;28;19918;-49
2021/07/07 09:07:08;;;;;;;;;;;22.30;48.90;;;;;;8264893;28;19921;-48
2021/07/07 09:11:19;;;;;;;;;;;22.30;49.00;;;;;;8261363;28;20394;-49
2021/07/07 09:15:19;;;;;;;;;;;22.30;48.90;;;;;;8262438;28;20370;-49
2021/07/07 09:19:20;;;;;;;;;;;22.30;48.70;;;;;;8266110;28;19921;-49
2021/07/07 09:23:22;;;;;;;;;;;22.30;48.80;;;;;;8266960;28;19961;-52
2021/07/07 09:27:23;;;;;;;;;;;22.30;48.90;;;;;;8270831;28;19952;-49
2021/07/07 09:31:28;;;;;;;;;;;22.30;49.00;;;;;;8265796;28;20390;-48
2021/07/07 09:35:28;;;;;;;;;;;22.30;49.00;;;;;;8265894;28;19920;-49
2021/07/07 09:39:30;;;;;;;;;;;22.30;48.80;;;;;;8265617;28;19936;-48
2021/07/07 09:43:30;;;;;;;;;;;22.30;49.00;;;;;;8269665;28;19910;-49
2021/07/07 09:47:31;;;;;;;;;;;22.30;49.20;;;;;;8265799;28;19922;-49
2021/07/07 09:51:33;;;;;;;;;;;22.30;48.90;;;;;;8265716;28;20382;-49
2021/07/07 09:55:33;;;;;;;;;;;22.30;48.90;;;;;;8264848;28;19913;-48
2021/07/07 09:59:36;;;;;;;;;;;22.30;49.00;;;;;;8265657;28;20354;-48
2021/07/07 10:03:36;;;;;;;;;;;22.30;49.00;;;;;;8269889;28;19917;-48
2021/07/07 10:07:37;;;;;;;;;;;22.30;49.00;;;;;;8264553;28;19925;-49
2021/07/07 10:11:38;;;;;;;;;;;22.30;49.40;;;;;;8265347;28;19917;-49
2021/07/07 10:15:39;;;;;;;;;;;22.30;49.20;;;;;;8265071;28;20004;-50
2021/07/07 10:19:40;;;;;;;;;;;22.30;48.90;;;;;;8268877;28;19932;-49
2021/07/07 10:23:40;;;;;;;;;;;22.30;49.20;;;;;;8264600;28;19914;-49
2021/07/07 10:27:41;;;;;;;;;;;22.30;49.20;;;;;;8263997;28;19957;-49
2021/07/07 10:31:45;;;;;;;;;;;22.30;49.10;;;;;;8264004;28;19913;-51
2021/07/07 10:35:46;;;;;;;;;;;22.20;49.10;;;;;;8268969;28;19910;-49
2021/07/07 10:39:47;;;;;;;;;;;22.30;49.00;;;;;;8264135;28;19917;-49
2021/07/07 10:43:48;;;;;;;;;;;22.30;49.20;;;;;;8263504;28;19961;-49
2021/07/07 10:47:48;;;;;;;;;;;22.30;48.90;;;;;;8263793;28;19928;-50
2021/07/07 10:51:49;;;;;;;;;;;22.30;48.90;;;;;;8263784;28;19913;-49
2021/07/07 10:55:51;;;;;;;;;;;22.30;48.90;;;;;;8267572;28;19917;-49
2021/07/07 10:59:52;;;;;;;;;;;22.30;49.00;;;;;;8263544;28;20391;-48
2021/07/07 11:04:00;;;;;;;;;;;22.30;48.90;;;;;;8263710;28;19964;-49
2021/07/07 11:08:04;;;;;;;;;;;22.30;48.90;;;;;;8262685;28;19921;-50
2021/07/07 11:12:04;;;;;;;;;;;22.30;48.80;;;;;;8267598;28;19916;-51
2021/07/07 11:16:08;;;;;;;;;;;22.30;48.80;;;;;;8262791;28;19952;-49
2021/07/07 11:20:08;;;;;;;;;;;22.30;48.80;;;;;;8262889;28;19940;-49
2021/07/07 11:24:09;;;;;;;;;;;22.30;48.90;;;;;;8262549;28;19961;-49
2021/07/07 11:28:11;;;;;;;;;;;22.30;48.90;;;;;;8262150;28;19944;-50
2021/07/07 11:32:31;;;;;;;;;;;22.30;49.00;;;;;;8266891;28;20390;-49
2021/07/07 11:36:33;;;;;;;;;;;22.30;48.90;;;;;;8262429;28;19937;-49
2021/07/07 11:40:35;;;;;;;;;;;22.30;49.00;;;;;;8261214;28;19945;-49
2021/07/07 11:44:42;;;;;;;;;;;22.30;48.80;;;;;;8262039;28;20359;-49
2021/07/07 11:48:47;;;;;;;;;;;22.40;48.90;;;;;;8262832;28;19925;-48
2021/07/07 11:52:52;;;;;;;;;;;22.40;48.80;;;;;;8233781;28;20390;-49
2021/07/07 11:56:59;;;;;;;;;;;22.40;48.90;;;;;;8254839;28;19984;-49
2021/07/07 12:01:01;;;;;;;;;;;22.40;48.90;;;;;;8261845;28;20016;-49
2021/07/07 12:05:05;;;;;;;;;;;22.40;48.80;;;;;;8261472;28;19924;-49
2021/07/07 12:09:16;;;;;;;;;;;22.40;48.90;;;;;;8266105;28;19921;-49
2021/07/07 12:13:23;;;;;;;;;;;22.40;49.00;;;;;;8261706;28;19950;-49
2021/07/07 12:17:23;;;;;;;;;;;22.40;48.90;;;;;;8261498;28;20091;-49
2021/07/07 12:21:24;;;;;;;;;;;22.40;48.70;;;;;;8261528;28;19914;-51
2021/07/07 12:25:24;;;;;;;;;;;22.40;49.00;;;;;;8260957;28;19936;-49
2021/07/07 12:29:26;;;;;;;;;;;22.40;48.70;;;;;;8266100;28;19921;-49
2021/07/07 12:33:30;;;;;;;;;;;22.40;48.70;;;;;;8261124;28;19924;-49
2021/07/07 12:37:32;;;;;;;;;;;22.50;48.80;;;;;;8261398;28;19956;-49
2021/07/07 12:41:33;;;;;;;;;;;22.50;48.80;;;;;;8261313;28;20378;-50
2021/07/07 12:45:34;;;;;;;;;;;22.40;48.70;;;;;;8265739;28;20004;-50
2021/07/07 12:49:34;;;;;;;;;;;22.40;48.80;;;;;;8261378;28;19961;-49
2021/07/07 12:53:35;;;;;;;;;;;22.50;48.70;;;;;;8267509;28;19920;-49
2021/07/07 12:57:42;;;;;;;;;;;22.50;48.80;;;;;;8267548;28;19918;-49
2021/07/07 13:01:43;;;;;;;;;;;22.50;48.70;;;;;;8266902;28;19914;-49
2021/07/07 13:06:00;;;;;;;;;;;22.50;48.70;;;;;;8271322;28;19949;-50
2021/07/07 13:10:00;;;;;;;;;;;22.50;48.70;;;;;;8267160;28;20287;-52
2021/07/07 13:14:10;;;;;;;;;;;22.50;48.70;;;;;;8266418;28;19914;-53
2021/07/07 13:18:11;;;;;;;;;;;22.50;48.70;;;;;;8267226;28;19917;-52
2021/07/07 13:22:14;;;;;;;;;;;22.50;48.70;;;;;;8270552;28;19914;-49
2021/07/07 13:26:23;;;;;;;;;;;22.60;48.70;;;;;;8267692;28;19957;-51
2021/07/07 13:30:28;;;;;;;;;;;22.60;48.70;;;;;;8266780;28;19917;-49
2021/07/07 13:34:29;;;;;;;;;;;22.60;48.70;;;;;;8265699;28;19982;-51
2021/07/07 13:38:29;;;;;;;;;;;22.60;48.60;;;;;;8266219;28;19957;-51
2021/07/07 13:42:31;;;;;;;;;;;22.60;48.50;;;;;;8270444;28;19914;-51
2021/07/07 13:46:31;;;;;;;;;;;22.60;48.60;;;;;;8265253;28;19922;-50
2021/07/07 13:50:32;;;;;;;;;;;22.60;48.60;;;;;;8265891;28;19914;-52
2021/07/07 13:54:33;;;;;;;;;;;22.70;48.50;;;;;;8265901;28;20004;-50
2021/07/07 13:58:33;;;;;;;;;;;22.70;48.50;;;;;;8269756;28;19913;-49
2021/07/07 14:02:34;;;;;;;;;;;22.70;48.40;;;;;;8264118;28;19914;-50
2021/07/07 14:06:36;;;;;;;;;;;22.70;48.50;;;;;;8263752;28;20315;-51
2021/07/07 14:10:36;;;;;;;;;;;22.70;48.40;;;;;;8264714;28;19968;-51
2021/07/07 14:14:37;;;;;;;;;;;22.70;48.40;;;;;;8264549;28;20268;-51
2021/07/07 14:18:37;;;;;;;;;;;22.70;48.30;;;;;;8269398;28;19937;-49
2021/07/07 14:22:37;;;;;;;;;;;22.70;48.30;;;;;;8239815;28;19921;-50
2021/07/07 14:26:38;;;;;;;;;;;22.80;48.20;;;;;;8248662;28;19995;-49
2021/07/07 14:30:38;;;;;;;;;;;22.80;48.20;;;;;;8264856;28;19964;-50
2021/07/07 14:34:39;;;;;;;;;;;22.80;48.30;;;;;;8268479;28;19956;-51
2021/07/07 14:38:40;;;;;;;;;;;22.80;48.20;;;;;;8264471;28;19948;-50
2021/07/07 14:42:40;;;;;;;;;;;22.80;48.10;;;;;;8264173;28;20009;-49
2021/07/07 14:46:41;;;;;;;;;;;22.80;48.20;;;;;;8253948;28;20008;-51
2021/07/07 14:50:41;;;;;;;;;;;22.80;48.10;;;;;;8234348;28;19910;-51
2021/07/07 14:54:42;;;;;;;;;;;22.80;48.00;;;;;;8266074;28;19941;-49
2021/07/07 14:58:42;;;;;;;;;;;22.80;48.10;;;;;;8263157;28;19914;-50
2021/07/07 15:02:43;;;;;;;;;;;22.80;48.00;;;;;;8263792;28;19992;-50
2021/07/07 15:06:43;;;;;;;;;;;22.90;48.00;;;;;;8263398;28;19921;-52
2021/07/07 15:10:44;;;;;;;;;;;22.90;48.00;;;;;;8267070;28;19910;-48
2021/07/07 15:14:44;;;;;;;;;;;22.90;48.00;;;;;;8262874;28;20004;-48
2021/07/07 15:18:45;;;;;;;;;;;22.90;48.00;;;;;;8262583;28;19914;-49
2021/07/07 15:22:45;;;;;;;;;;;23.00;48.00;;;;;;8262526;28;20005;-50
2021/07/07 15:26:45;;;;;;;;;;;22.90;48.00;;;;;;8267322;28;19953;-52
2021/07/07 15:30:46;;;;;;;;;;;22.90;48.00;;;;;;8263013;28;19913;-48
2021/07/07 15:34:46;;;;;;;;;;;23.00;48.00;;;;;;8262219;28;19920;-49
2021/07/07 15:38:47;;;;;;;;;;;23.00;48.10;;;;;;8262555;28;19957;-49
2021/07/07 15:42:48;;;;;;;;;;;23.00;48.10;;;;;;8261884;28;19968;-52
2021/07/07 15:46:49;;;;;;;;;;;23.00;48.00;;;;;;8266015;28;19956;-51
2021/07/07 15:50:50;;;;;;;;;;;23.00;48.10;;;;;;8262298;28;19914;-49
2021/07/07 15:54:50;;;;;;;;;;;23.00;48.00;;;;;;8261322;28;19921;-51
2021/07/07 15:58:50;;;;;;;;;;;23.10;48.10;;;;;;8261626;28;20390;-49
2021/07/07 16:02:51;;;;;;;;;;;23.10;48.20;;;;;;8266216;28;20364;-49
2021/07/07 16:06:52;;;;;;;;;;;23.10;48.10;;;;;;8261870;28;19929;-49
2021/07/07 16:10:53;;;;;;;;;;;23.10;48.10;;;;;;8260986;28;19968;-51
2021/07/07 16:14:53;;;;;;;;;;;23.10;48.10;;;;;;8261676;28;19913;-50
2021/07/07 16:18:54;;;;;;;;;;;23.10;48.10;;;;;;8265891;28;19910;-50
2021/07/07 16:22:54;;;;;;;;;;;23.10;48.00;;;;;;8260922;28;19918;-48
2021/07/07 16:26:55;;;;;;;;;;;23.10;47.90;;;;;;8270580;28;19927;-49
2021/07/07 16:30:56;;;;;;;;;;;23.10;48.00;;;;;;8272164;28;19926;-50
2021/07/07 16:34:57;;;;;;;;;;;23.10;48.10;;;;;;8271428;28;19945;-52
2021/07/07 16:38:58;;;;;;;;;;;23.10;48.10;;;;;;8276618;28;19920;-52
2021/07/07 16:42:59;;;;;;;;;;;23.10;48.00;;;;;;8272123;28;20013;-51
2021/07/07 16:47:00;;;;;;;;;;;23.10;48.00;;;;;;8271757;28;19921;-53
2021/07/07 16:51:00;;;;;;;;;;;23.10;47.90;;;;;;8271614;28;19913;-50
2021/07/07 16:55:01;;;;;;;;;;;23.10;47.90;;;;;;8276074;28;19917;-48
2021/07/07 16:59:01;;;;;;;;;;;23.10;47.80;;;;;;8271338;28;19914;-46
2021/07/07 17:03:02;;;;;;;;;;;23.10;47.80;;;;;;8271707;28;19918;-48
2021/07/07 17:07:03;;;;;;;;;;;23.10;47.90;;;;;;8270139;28;19928;-47
2021/07/07 17:11:03;;;;;;;;;;;23.10;47.80;;;;;;8252239;28;20378;-50
2021/07/07 17:15:05;;;;;;;;;;;23.10;47.80;;;;;;8252440;28;19921;-47
2021/07/07 17:19:05;;;;;;;;;;;23.10;47.80;;;;;;8238062;28;19941;-47
2021/07/07 17:23:06;;;;;;;;;;;23.10;47.70;;;;;;8239286;28;19921;-49
2021/07/07 17:27:06;;;;;;;;;;;23.10;47.90;;;;;;8235769;28;20017;-49
2021/07/07 17:31:07;;;;;;;;;;;23.10;47.80;;;;;;8267770;28;19914;-50
2021/07/07 17:35:08;;;;;;;;;;;23.10;47.90;;;;;;8235247;28;20374;-52
2021/07/07 17:39:08;;;;;;;;;;;23.10;47.80;;;;;;8268727;28;19920;-49
2021/07/07 17:43:09;;;;;;;;;;;23.10;47.80;;;;;;8280066;28;20008;-49
2021/07/07 17:47:10;;;;;;;;;;;23.10;47.80;;;;;;8270509;28;20352;-50
2021/07/07 17:51:10;;;;;;;;;;;23.10;47.90;;;;;;8265114;28;19914;-49
2021/07/07 17:55:11;;;;;;;;;;;23.10;47.80;;;;;;8264773;28;19910;-50
2021/07/07 17:59:11;;;;;;;;;;;23.10;47.90;;;;;;8265320;28;19945;-50
2021/07/07 18:03:12;;;;;;;;;;;23.10;47.80;;;;;;8265042;28;19925;-49
2021/07/07 18:07:12;;;;;;;;;;;23.10;48.00;;;;;;8268598;28;19959;-50
2021/07/07 18:11:13;;;;;;;;;;;23.10;48.00;;;;;;8265149;28;20009;-49
2021/07/07 18:15:14;;;;;;;;;;;23.10;48.10;;;;;;8265187;28;20291;-49
2021/07/07 18:19:16;;;;;;;;;;;23.10;48.00;;;;;;8264412;28;19917;-50
2021/07/07 18:23:16;;;;;;;;;;;23.10;47.90;;;;;;8269217;28;19910;-51
2021/07/07 18:27:17;;;;;;;;;;;23.10;47.90;;;;;;8264849;28;20096;-49
2021/07/07 18:31:18;;;;;;;;;;;23.10;48.10;;;;;;8263901;28;19914;-48
2021/07/07 18:35:18;;;;;;;;;;;23.10;48.00;;;;;;8255744;28;19917;-49
2021/07/07 18:39:18;;;;;;;;;;;23.10;48.00;;;;;;8269461;28;19922;-52
2021/07/07 18:43:19;;;;;;;;;;;23.00;48.00;;;;;;8254622;28;20355;-50
2021/07/07 18:47:21;;;;;;;;;;;23.10;48.20;;;;;;8247566;28;19922;-49
2021/07/07 18:51:22;;;;;;;;;;;23.00;48.10;;;;;;8232102;28;19942;-50
2021/07/07 18:55:24;;;;;;;;;;;23.10;48.10;;;;;;8257976;28;19920;-50
2021/07/07 18:59:25;;;;;;;;;;;23.10;48.00;;;;;;8268227;28;19959;-48
2021/07/07 19:03:25;;;;;;;;;;;23.00;48.00;;;;;;8263387;28;19964;-49
2021/07/07 19:07:26;;;;;;;;;;;23.00;48.10;;;;;;8262334;28;19921;-49
2021/07/07 19:11:28;;;;;;;;;;;23.00;47.90;;;;;;8261065;28;20283;-48
2021/07/07 19:15:28;;;;;;;;;;;23.00;48.10;;;;;;8270087;28;19918;-48
2021/07/07 19:19:29;;;;;;;;;;;23.00;48.10;;;;;;8262371;28;19914;-48
2021/07/07 19:23:29;;;;;;;;;;;23.00;48.10;;;;;;8261960;28;20012;-51
2021/07/07 19:27:30;;;;;;;;;;;23.00;48.00;;;;;;8245311;28;20276;-49
2021/07/07 19:31:31;;;;;;;;;;;23.00;48.20;;;;;;8260268;28;19920;-48
2021/07/07 19:35:32;;;;;;;;;;;23.00;48.20;;;;;;8257179;28;20385;-51
2021/07/07 19:39:32;;;;;;;;;;;23.00;48.20;;;;;;8262575;28;19914;-48
2021/07/07 19:43:33;;;;;;;;;;;23.00;48.20;;;;;;8261960;28;19940;-49
2021/07/07 19:47:33;;;;;;;;;;;23.00;48.20;;;;;;8262559;28;19925;-49
2021/07/07 19:51:34;;;;;;;;;;;23.00;48.20;;;;;;8266568;28;19917;-49
2021/07/07 19:55:34;;;;;;;;;;;23.00;48.10;;;;;;8261636;28;19913;-49
2021/07/07 19:59:35;;;;;;;;;;;23.00;48.10;;;;;;8261181;28;19913;-51
2021/07/07 20:03:38;;;;;;;;;;;23.00;48.10;;;;;;8262108;28;19976;-49
2021/07/07 20:07:39;;;;;;;;;;;23.00;48.20;;;;;;8265791;28;19922;-48
2021/07/07 20:11:39;;;;;;;;;;;23.00;48.30;;;;;;8261888;28;19913;-51
2021/07/07 20:15:40;;;;;;;;;;;23.00;48.20;;;;;;8262705;28;20351;-48
2021/07/07 20:19:40;;;;;;;;;;;23.00;48.20;;;;;;8261211;28;20004;-49
2021/07/07 20:23:41;;;;;;;;;;;23.00;48.20;;;;;;8262000;28;19910;-50
2021/07/07 20:27:42;;;;;;;;;;;23.00;48.20;;;;;;8266212;28;19918;-48
2021/07/07 20:31:42;;;;;;;;;;;22.90;48.20;;;;;;8261132;28;19936;-49
2021/07/07 20:35:43;;;;;;;;;;;22.90;48.10;;;;;;8261664;28;19913;-49
2021/07/07 20:39:43;;;;;;;;;;;23.00;48.30;;;;;;8261376;28;19921;-49
2021/07/07 20:43:44;;;;;;;;;;;22.90;48.30;;;;;;8265189;28;19910;-53
2021/07/07 20:47:44;;;;;;;;;;;22.90;48.30;;;;;;8261162;28;19944;-51
2021/07/07 20:51:45;;;;;;;;;;;22.90;48.20;;;;;;8261061;28;20430;-49
2021/07/07 20:55:46;;;;;;;;;;;23.00;48.30;;;;;;8260564;28;19918;-52
2021/07/07 20:59:46;;;;;;;;;;;23.00;48.30;;;;;;8265390;28;19916;-49
2021/07/07 21:03:47;;;;;;;;;;;22.90;48.20;;;;;;8261480;28;20286;-51
2021/07/07 21:07:47;;;;;;;;;;;22.90;48.20;;;;;;8260544;28;20379;-49
2021/07/07 21:11:48;;;;;;;;;;;22.90;48.20;;;;;;8263852;28;19924;-48
2021/07/07 21:15:48;;;;;;;;;;;22.90;48.20;;;;;;8266914;28;19910;-48
2021/07/07 21:19:49;;;;;;;;;;;22.90;48.20;;;;;;8270832;28;20390;-50
2021/07/07 21:23:49;;;;;;;;;;;22.90;48.20;;;;;;8266632;28;20375;-50
2021/07/07 21:27:51;;;;;;;;;;;22.90;48.20;;;;;;8266560;28;19998;-49
2021/07/07 21:31:51;;;;;;;;;;;22.90;48.20;;;;;;8266026;28;19914;-49
2021/07/07 21:35:52;;;;;;;;;;;22.90;48.20;;;;;;8271014;28;19964;-49
2021/07/07 21:39:52;;;;;;;;;;;22.90;48.20;;;;;;8266361;28;19921;-49
2021/07/07 21:43:52;;;;;;;;;;;22.90;48.20;;;;;;8265722;28;19914;-49
2021/07/07 21:47:54;;;;;;;;;;;22.90;48.20;;;;;;8266016;28;19929;-49
2021/07/07 21:51:54;;;;;;;;;;;22.90;48.10;;;;;;8270506;28;19956;-49
2021/07/07 21:55:55;;;;;;;;;;;22.90;48.20;;;;;;8265253;28;19914;-49
2021/07/07 21:59:55;;;;;;;;;;;22.90;48.20;;;;;;8265700;28;19968;-51
2021/07/07 22:03:55;;;;;;;;;;;22.90;48.20;;;;;;8265346;28;20282;-49
2021/07/07 22:07:56;;;;;;;;;;;22.90;48.30;;;;;;8264815;28;19933;-49
2021/07/07 22:11:57;;;;;;;;;;;22.90;48.20;;;;;;8269887;28;19910;-49
2021/07/07 22:15:57;;;;;;;;;;;22.90;48.20;;;;;;8265245;28;19921;-51
2021/07/07 22:19:58;;;;;;;;;;;22.90;48.20;;;;;;8264941;28;19917;-50
2021/07/07 22:23:58;;;;;;;;;;;22.80;48.20;;;;;;8263921;28;20302;-49
2021/07/07 22:27:59;;;;;;;;;;;22.90;48.20;;;;;;8268946;28;19922;-48
2021/07/07 22:32:00;;;;;;;;;;;22.90;48.20;;;;;;8264029;28;19921;-50
2021/07/07 22:36:01;;;;;;;;;;;22.80;48.10;;;;;;8264672;28;20346;-49
2021/07/07 22:40:02;;;;;;;;;;;22.80;48.20;;;;;;8264197;28;19910;-50
2021/07/07 22:44:03;;;;;;;;;;;22.90;48.20;;;;;;8265259;28;20376;-49
2021/07/07 22:48:04;;;;;;;;;;;22.90;48.30;;;;;;8268460;28;19968;-50
2021/07/07 22:52:07;;;;;;;;;;;22.90;48.20;;;;;;8263562;28;20303;-50
2021/07/07 22:56:08;;;;;;;;;;;22.80;48.20;;;;;;8263843;28;19921;-49
2021/07/07 23:00:10;;;;;;;;;;;22.80;48.20;;;;;;8263942;28;19925;-49
2021/07/07 23:04:11;;;;;;;;;;;22.80;48.30;;;;;;8267640;28;19917;-49
2021/07/07 23:08:11;;;;;;;;;;;22.80;48.30;;;;;;8263158;28;20066;-51
2021/07/07 23:12:12;;;;;;;;;;;22.80;48.20;;;;;;8263279;28;20064;-50
2021/07/07 23:16:12;;;;;;;;;;;22.80;48.20;;;;;;8262771;28;19914;-52
2021/07/07 23:20:14;;;;;;;;;;;22.80;48.30;;;;;;8267486;28;19948;-49